Time;durP1;ratioP1;P1;durP2;ratioP2;P2;SDS_P1;SDS_P2;PMS_P1;PMS_P2;Temp;Humidity;BMP_temperature;BMP_pressure;BME280_temperature;BME280_humidity;BME280_pressure;Samples;Min_cycle;Max_cycle;Signal;HPM_P1;HPM_P2
2022/10/02 00:02:00;;;;;;;1.20;1.20;;;;;;;22.85;55.79;97669.84;5032671;28;20228;-31
2022/10/02 00:04:57;;;;;;;1.30;1.20;;;;;;;22.85;55.79;97671.53;5038170;28;20221;-31
2022/10/02 00:07:27;;;;;;;1.30;1.27;;;;;;;22.85;55.77;97676.66;5024609;28;20664;-31
2022/10/02 00:09:57;;;;;;;1.20;1.20;;;;;;;22.85;55.71;97671.53;5017044;28;20201;-31
2022/10/02 00:12:24;;;;;;;1.20;1.20;;;;;;;22.79;55.83;97664.56;5009881;28;20209;-31
2022/10/02 00:14:52;;;;;;;1.00;1.00;;;;;;;22.85;55.76;97679.22;5044763;28;20198;-31
2022/10/02 00:17:26;;;;;;;1.17;1.17;;;;;;;22.79;55.81;97682.50;5034510;28;20201;-31
2022/10/02 00:19:53;;;;;;;1.10;1.10;;;;;;;22.85;55.80;97686.91;5014305;28;20204;-31
2022/10/02 00:23:05;;;;;;;1.40;1.30;;;;;;;22.84;55.78;97698.88;5032170;28;20724;-31
2022/10/02 00:25:36;;;;;;;1.30;1.23;;;;;;;22.84;55.76;97698.88;5028279;28;20197;-31
2022/10/02 00:28:11;;;;;;;1.10;1.10;;;;;;;22.84;55.69;97703.13;5033441;28;20210;-31
2022/10/02 00:30:47;;;;;;;1.00;1.00;;;;;;;22.84;55.93;97705.69;5028367;28;20639;-31
2022/10/02 00:33:28;;;;;;;1.20;1.20;;;;;;;22.84;55.80;97732.19;5036896;28;20216;-31
2022/10/02 00:36:17;;;;;;;1.13;1.13;;;;;;;22.85;55.77;97725.34;5019652;28;20198;-31
2022/10/02 00:38:49;;;;;;;1.10;1.10;;;;;;;22.79;55.86;97713.25;5023840;28;20210;-31
2022/10/02 00:41:21;;;;;;;1.03;1.03;;;;;;;22.84;55.79;97721.06;5022634;28;20211;-31
2022/10/02 00:44:09;;;;;;;1.10;1.10;;;;;;;22.83;55.79;97725.31;5030294;28;20712;-31
2022/10/02 00:46:59;;;;;;;1.40;1.30;;;;;;;22.79;55.91;97709.81;5027939;28;20200;-30
2022/10/02 00:49:31;;;;;;;1.30;1.20;;;;;;;22.85;55.86;97725.34;5032706;28;20672;-31
2022/10/02 00:52:17;;;;;;;1.20;1.10;;;;;;;22.84;55.70;97709.13;5032615;28;20699;-31
2022/10/02 00:54:59;;;;;;;1.10;1.10;;;;;;;22.84;55.83;97729.63;5034034;28;20212;-31
2022/10/02 00:57:49;;;;;;;1.00;1.00;;;;;;;22.82;55.70;97718.47;5045723;28;20220;-31
2022/10/02 01:00:18;;;;;;;1.10;1.10;;;;;;;22.84;55.75;97727.06;5029542;28;20211;-31
2022/10/02 01:02:57;;;;;;;1.13;1.10;;;;;;;22.82;55.74;97717.59;5032911;28;20351;-30
2022/10/02 01:05:26;;;;;;;1.10;1.10;;;;;;;22.83;55.69;97720.19;5033759;28;20198;-31
2022/10/02 01:07:53;;;;;;;1.17;1.17;;;;;;;22.84;55.77;97721.94;5033408;28;20216;-31
2022/10/02 01:10:21;;;;;;;1.10;1.10;;;;;;;22.85;55.66;97730.47;5032059;28;20558;-31
2022/10/02 01:12:48;;;;;;;1.23;1.20;;;;;;;22.84;55.80;97716.81;5031779;28;20229;-31
2022/10/02 01:15:17;;;;;;;1.10;1.10;;;;;;;22.83;55.77;97722.75;5040906;28;20209;-31
2022/10/02 01:17:44;;;;;;;1.03;1.03;;;;;;;22.75;55.68;97714.00;5033421;28;20360;-31
2022/10/02 01:20:16;;;;;;;1.07;1.07;;;;;;;22.79;55.81;97726.06;5031963;28;20202;-31
2022/10/02 01:22:47;;;;;;;1.10;1.10;;;;;;;22.83;55.86;97725.31;5031492;28;20233;-31
2022/10/02 01:25:14;;;;;;;1.10;1.10;;;;;;;22.79;55.86;97712.38;5039055;28;20201;-31
2022/10/02 01:27:41;;;;;;;1.10;1.10;;;;;;;22.80;55.74;97706.44;5023408;28;20205;-31
2022/10/02 01:30:10;;;;;;;1.40;1.30;;;;;;;22.84;55.83;97709.13;5029869;28;20672;-31
2022/10/02 01:32:41;;;;;;;1.17;1.10;;;;;;;22.81;55.79;97703.94;5032634;28;20586;-31
2022/10/02 01:35:08;;;;;;;1.30;1.20;;;;;;;22.84;55.84;97705.69;5015359;28;20201;-31
2022/10/02 01:37:37;;;;;;;1.10;1.10;;;;;;;22.78;55.86;97701.28;5032516;28;20193;-31
2022/10/02 01:40:07;;;;;;;1.10;1.10;;;;;;;22.85;55.80;97709.97;5023062;28;20212;-31
2022/10/02 01:42:35;;;;;;;1.50;1.40;;;;;;;22.84;55.79;97715.94;5032591;28;20232;-31
2022/10/02 01:45:05;;;;;;;1.10;1.10;;;;;;;22.79;55.81;97713.25;5031490;28;20216;-31
2022/10/02 01:47:54;;;;;;;1.10;1.10;;;;;;;22.85;55.71;97726.25;5011633;28;20202;-31
2022/10/02 01:50:45;;;;;;;1.10;1.10;;;;;;;22.77;55.75;97714.06;5015864;28;20201;-31
2022/10/02 01:53:38;;;;;;;1.10;1.10;;;;;;;22.85;55.78;97738.16;5025766;28;20589;-31
2022/10/02 01:56:44;;;;;;;1.20;1.20;;;;;;;22.84;55.73;97728.75;5022478;28;20208;-31
2022/10/02 01:59:24;;;;;;;1.20;1.20;;;;;;;22.84;55.87;97737.31;5011277;28;20565;-31
2022/10/02 02:02:03;;;;;;;1.00;1.00;;;;;;;22.79;55.82;97725.19;5007961;28;20228;-31
2022/10/02 02:04:42;;;;;;;1.20;1.10;;;;;;;22.84;55.56;97737.31;5040346;28;20259;-31
2022/10/02 02:07:13;;;;;;;1.10;1.10;;;;;;;22.84;55.81;97741.56;5030976;28;20201;-31
2022/10/02 02:09:58;;;;;;;1.27;1.13;;;;;;;22.84;55.78;97737.31;5011970;28;20669;-31
2022/10/02 02:12:46;;;;;;;1.27;1.10;;;;;;;22.84;55.78;97736.44;5024887;28;20208;-31
2022/10/02 02:15:21;;;;;;;1.20;1.20;;;;;;;22.71;55.90;97711.31;5033510;28;20664;-31
2022/10/02 02:17:55;;;;;;;1.10;1.10;;;;;;;22.82;55.74;97722.72;5025169;28;20212;-31
2022/10/02 02:20:31;;;;;;;1.20;1.10;;;;;;;22.83;55.81;97737.28;5023622;28;20202;-31
2022/10/02 02:23:04;;;;;;;1.00;1.00;;;;;;;22.81;55.71;97734.69;5030831;28;20225;-30
2022/10/02 02:25:31;;;;;;;1.20;1.10;;;;;;;22.83;55.91;97735.56;5023817;28;20567;-30
2022/10/02 02:28:00;;;;;;;1.20;1.10;;;;;;;22.75;55.75;97710.56;5030746;28;20676;-31
2022/10/02 02:30:26;;;;;;;1.23;1.20;;;;;;;22.83;55.90;97714.22;5014119;28;20216;-31
2022/10/02 02:33:01;;;;;;;1.10;1.10;;;;;;;22.83;55.83;97719.34;5039497;28;20233;-31
2022/10/02 02:35:31;;;;;;;1.00;1.00;;;;;;;22.83;55.76;97725.31;5033752;28;20193;-31
2022/10/02 02:38:06;;;;;;;1.27;1.20;;;;;;;22.83;55.83;97720.19;5015044;28;20395;-31
2022/10/02 02:40:35;;;;;;;1.03;1.03;;;;;;;22.83;55.85;97733.00;5030636;28;20201;-31
2022/10/02 02:43:06;;;;;;;1.10;1.10;;;;;;;22.83;55.77;97735.56;5025539;28;20643;-31
2022/10/02 02:45:56;;;;;;;0.90;0.90;;;;;;;22.84;55.81;97731.31;5023860;28;20206;-31
2022/10/02 02:48:38;;;;;;;1.10;1.10;;;;;;;22.83;55.86;97738.13;5029570;28;20680;-31
2022/10/02 02:51:14;;;;;;;1.17;1.17;;;;;;;22.80;55.84;97726.94;5015234;28;20193;-31
2022/10/02 02:53:43;;;;;;;1.00;1.00;;;;;;;22.84;55.73;97733.88;5004172;28;20213;-31
2022/10/02 02:56:12;;;;;;;1.00;1.00;;;;;;;22.82;55.81;97735.53;5030129;28;20198;-31
2022/10/02 02:58:50;;;;;;;1.10;1.10;;;;;;;22.83;55.87;97739.84;5023569;28;20193;-31
2022/10/02 03:01:17;;;;;;;1.00;1.00;;;;;;;22.83;55.86;97738.13;5023816;28;20202;-31
2022/10/02 03:03:44;;;;;;;1.10;1.10;;;;;;;22.84;55.83;97746.69;5029731;28;20229;-31
2022/10/02 03:06:17;;;;;;;1.03;1.03;;;;;;;22.83;55.77;97739.84;5031439;28;20205;-31
2022/10/02 03:08:43;;;;;;;1.20;1.20;;;;;;;22.84;55.77;97762.06;5031116;28;20595;-31
2022/10/02 03:11:44;;;;;;;1.10;1.10;;;;;;;22.84;55.92;97769.75;5030143;28;20217;-31
2022/10/02 03:14:41;;;;;;;1.10;1.10;;;;;;;22.83;55.74;97766.31;5023094;28;20601;-31
2022/10/02 03:17:25;;;;;;;1.37;1.27;;;;;;;22.83;55.76;97761.19;5033278;28;20201;-31
2022/10/02 03:20:30;;;;;;;1.37;1.27;;;;;;;22.83;55.86;97762.91;5031541;28;20691;-31
2022/10/02 03:23:02;;;;;;;1.30;1.20;;;;;;;22.84;55.85;97749.25;5037848;28;20229;-31
2022/10/02 03:25:51;;;;;;;1.17;1.10;;;;;;;22.75;55.94;97741.31;5031565;28;20198;-31
2022/10/02 03:28:26;;;;;;;1.27;1.17;;;;;;;22.82;55.75;97756.03;5027058;28;20546;-31
2022/10/02 03:31:13;;;;;;;1.00;1.00;;;;;;;22.80;55.71;97755.13;5028094;28;20206;-31
2022/10/02 03:33:40;;;;;;;1.00;1.00;;;;;;;22.82;55.94;97750.91;5028351;28;20212;-31
2022/10/02 03:36:09;;;;;;;1.53;1.10;;;;;;;22.82;56.07;97761.16;5028720;28;20205;-31
2022/10/02 03:38:35;;;;;;;0.90;0.90;;;;;;;22.80;55.89;97770.50;5021726;28;20202;-31
2022/10/02 03:41:02;;;;;;;1.13;1.10;;;;;;;22.82;55.50;97768.84;5034783;28;20257;-31
2022/10/02 03:43:28;;;;;;;1.13;1.13;;;;;;;22.81;55.81;97770.56;5041612;28;20244;-31
2022/10/02 03:45:55;;;;;;;1.20;1.10;;;;;;;22.81;55.91;97773.13;5041940;28;20228;-31
2022/10/02 03:48:21;;;;;;;1.23;1.20;;;;;;;22.82;55.69;97769.72;5036110;28;20256;-31
2022/10/02 03:50:51;;;;;;;1.13;1.13;;;;;;;22.77;55.93;97760.19;5034538;28;20208;-31
2022/10/02 03:53:19;;;;;;;1.27;1.17;;;;;;;22.80;55.84;97768.78;5037774;28;20599;-31
2022/10/02 03:56:15;;;;;;;1.10;1.10;;;;;;;22.82;55.93;97774.84;5035390;28;20209;-31
2022/10/02 03:58:44;;;;;;;1.10;1.10;;;;;;;22.73;55.93;97756.66;5039251;28;20198;-31
2022/10/02 04:01:23;;;;;;;1.30;1.20;;;;;;;22.82;55.99;97773.97;5029184;28;20196;-31
2022/10/02 04:03:55;;;;;;;1.20;1.10;;;;;;;22.81;55.81;97762.00;5032104;28;20229;-31
2022/10/02 04:06:25;;;;;;;1.00;1.00;;;;;;;22.82;55.87;97759.47;5033929;28;20201;-31
2022/10/02 04:09:25;;;;;;;1.10;1.10;;;;;;;22.82;55.83;97764.59;5021346;28;20205;-31
2022/10/02 04:11:56;;;;;;;1.10;1.10;;;;;;;22.83;55.78;97757.78;5010364;28;20208;-31
2022/10/02 04:14:28;;;;;;;1.10;1.07;;;;;;;22.75;55.84;97743.88;5038745;28;20228;-31
2022/10/02 04:17:05;;;;;;;1.20;1.10;;;;;;;22.82;55.95;97762.03;5038836;28;20198;-31
2022/10/02 04:19:36;;;;;;;1.10;1.10;;;;;;;22.80;55.87;97748.28;5045110;28;20664;-31
2022/10/02 04:22:27;;;;;;;1.17;1.17;;;;;;;22.82;55.71;97746.66;5044721;28;20198;-31
2022/10/02 04:25:01;;;;;;;1.00;1.00;;;;;;;22.82;55.77;97761.16;5034787;28;20208;-31
2022/10/02 04:27:37;;;;;;;1.10;1.10;;;;;;;22.82;55.86;97766.28;5035197;28;20197;-31
2022/10/02 04:30:06;;;;;;;1.00;1.00;;;;;;;22.81;55.92;97762.88;5044048;28;20710;-31
2022/10/02 04:32:33;;;;;;;1.27;1.17;;;;;;;22.82;55.89;97768.84;5045555;28;20218;-31
2022/10/02 04:35:01;;;;;;;1.10;1.10;;;;;;;22.81;55.84;97768.00;5044712;28;20212;-31
2022/10/02 04:37:37;;;;;;;1.10;1.10;;;;;;;22.82;55.88;97771.41;5046344;28;20198;-31
2022/10/02 04:40:20;;;;;;;1.10;1.10;;;;;;;22.82;55.89;97767.16;5032901;28;20197;-31
2022/10/02 04:42:50;;;;;;;1.10;1.10;;;;;;;22.82;55.82;97754.34;5035334;28;20607;-31
2022/10/02 04:45:35;;;;;;;1.20;1.10;;;;;;;22.82;55.82;97756.03;5043737;28;20651;-31
2022/10/02 04:48:27;;;;;;;1.37;1.27;;;;;;;22.82;55.86;97758.59;5035886;28;20619;-31
2022/10/02 04:51:02;;;;;;;1.10;1.10;;;;;;;22.80;55.91;97750.00;5017379;28;20201;-31
2022/10/02 04:53:41;;;;;;;1.03;1.03;;;;;;;22.81;55.89;97750.06;5033050;28;20213;-31
2022/10/02 04:56:08;;;;;;;0.90;0.90;;;;;;;22.82;55.92;97753.47;5038148;28;20200;-31
2022/10/02 04:58:45;;;;;;;1.27;1.20;;;;;;;22.82;55.92;97758.59;5035080;28;20656;-31
2022/10/02 05:01:33;;;;;;;1.13;1.10;;;;;;;22.81;55.75;97756.88;5037376;28;20201;-31
2022/10/02 05:04:13;;;;;;;1.10;1.10;;;;;;;22.82;56.05;97756.03;5036483;28;20226;-31
2022/10/02 05:07:11;;;;;;;1.00;1.00;;;;;;;22.81;55.92;97760.31;5038871;28;20586;-31
2022/10/02 05:09:55;;;;;;;0.90;0.90;;;;;;;22.81;55.87;97757.75;5041329;28;20200;-31
2022/10/02 05:12:50;;;;;;;1.23;1.13;;;;;;;22.81;55.92;97755.19;5045823;28;20211;-31
2022/10/02 05:15:27;;;;;;;1.00;1.00;;;;;;;22.82;55.90;97768.84;5032370;28;20203;-31
2022/10/02 05:18:15;;;;;;;1.40;1.30;;;;;;;22.82;55.87;97758.59;5034654;28;20200;-31
2022/10/02 05:21:06;;;;;;;1.30;1.20;;;;;;;22.82;55.66;97777.41;5044621;28;20732;-31
2022/10/02 05:23:38;;;;;;;0.90;0.90;;;;;;;22.81;56.01;97778.25;5032508;28;20707;-31
2022/10/02 05:26:22;;;;;;;1.47;1.20;;;;;;;22.82;55.95;97779.97;5047573;28;20200;-31
2022/10/02 05:28:58;;;;;;;1.40;1.30;;;;;;;22.82;55.92;97773.97;5036739;28;20217;-31
2022/10/02 05:31:42;;;;;;;1.00;1.00;;;;;;;22.81;55.99;97770.56;5043733;28;20215;-31
2022/10/02 05:34:15;;;;;;;1.17;1.17;;;;;;;22.81;55.88;97779.94;5034988;28;20213;-31
2022/10/02 05:36:41;;;;;;;1.20;1.10;;;;;;;22.81;56.05;97779.94;5036974;28;20500;-31
2022/10/02 05:39:16;;;;;;;1.07;1.07;;;;;;;22.73;55.87;97760.91;5038414;28;20202;-31
2022/10/02 05:41:57;;;;;;;1.00;1.00;;;;;;;22.79;56.07;97779.00;5022905;28;20205;-31
2022/10/02 05:44:34;;;;;;;1.00;1.00;;;;;;;22.82;55.75;97781.66;5028696;28;20235;-31
2022/10/02 05:47:11;;;;;;;1.07;1.07;;;;;;;22.81;55.87;97777.38;5042207;28;20196;-31
2022/10/02 05:49:43;;;;;;;1.10;1.10;;;;;;;22.81;56.00;97782.50;5013864;28;20657;-31
2022/10/02 05:52:19;;;;;;;1.17;1.13;;;;;;;22.81;55.90;97785.94;5029643;28;20212;-31
2022/10/02 05:54:55;;;;;;;1.27;1.20;;;;;;;22.82;55.90;97789.34;5016988;28;20193;-31
2022/10/02 05:57:21;;;;;;;1.00;1.00;;;;;;;22.81;55.93;97785.06;5043230;28;20672;-31
2022/10/02 06:00:30;;;;;;;1.00;1.00;;;;;;;22.81;55.95;97779.94;5035471;28;20565;-31
2022/10/02 06:03:30;;;;;;;1.00;1.00;;;;;;;22.81;55.95;97780.81;5041382;28;20233;-31
2022/10/02 06:06:21;;;;;;;1.20;1.10;;;;;;;22.81;55.98;97778.25;5038099;28;20201;-31
2022/10/02 06:09:02;;;;;;;1.13;1.13;;;;;;;22.81;56.07;97779.94;5043217;28;20205;-31
2022/10/02 06:11:41;;;;;;;1.00;1.00;;;;;;;22.74;55.96;97762.66;5018082;28;20202;-31
2022/10/02 06:14:29;;;;;;;1.17;1.17;;;;;;;22.81;55.88;97772.25;5026883;28;20700;-31
2022/10/02 06:17:08;;;;;;;1.03;1.03;;;;;;;22.81;55.96;97774.81;5036056;28;20205;-31
2022/10/02 06:19:52;;;;;;;1.10;1.10;;;;;;;22.81;55.88;97772.25;5042109;28;20204;-31
2022/10/02 06:22:20;;;;;;;1.00;1.00;;;;;;;22.80;56.12;97776.47;5031055;28;20197;-31
2022/10/02 06:24:53;;;;;;;1.20;1.10;;;;;;;22.81;55.96;97764.56;5031332;28;20704;-31
2022/10/02 06:27:33;;;;;;;1.10;1.10;;;;;;;22.81;55.84;97777.38;5015044;28;20208;-31
2022/10/02 06:30:11;;;;;;;1.10;1.10;;;;;;;22.73;55.89;97763.47;5041669;28;20200;-31
2022/10/02 06:32:40;;;;;;;1.30;1.20;;;;;;;22.82;55.83;97776.53;5034825;28;20214;-31
2022/10/02 06:35:11;;;;;;;1.03;1.03;;;;;;;22.81;55.91;97779.94;5049793;28;20581;-31
2022/10/02 06:37:58;;;;;;;1.00;1.00;;;;;;;22.81;55.99;97775.69;5034042;28;20205;-31
2022/10/02 06:40:41;;;;;;;1.20;1.10;;;;;;;22.71;55.88;97760.00;5026194;28;20661;-31
2022/10/02 06:43:14;;;;;;;1.20;1.10;;;;;;;22.81;55.89;97772.25;5034511;28;20239;-31
2022/10/02 06:45:46;;;;;;;1.20;1.13;;;;;;;22.81;55.92;97772.25;5040300;28;20205;-31
2022/10/02 06:48:42;;;;;;;1.10;1.10;;;;;;;22.81;55.90;97770.56;5015103;28;20259;-31
2022/10/02 06:51:17;;;;;;;1.00;1.00;;;;;;;22.81;55.98;97769.69;5027180;28;20193;-31
2022/10/02 06:54:07;;;;;;;1.20;1.10;;;;;;;22.78;55.91;97773.03;5039735;28;20229;-31
2022/10/02 06:56:43;;;;;;;1.20;1.10;;;;;;;22.80;55.93;97779.03;5042763;28;20201;-31
2022/10/02 06:59:37;;;;;;;1.00;1.00;;;;;;;22.80;55.83;97775.63;5024718;28;20467;-31
2022/10/02 07:02:07;;;;;;;1.20;1.10;;;;;;;22.80;55.96;97760.25;5036244;28;20202;-31
2022/10/02 07:04:43;;;;;;;1.23;1.13;;;;;;;22.81;55.87;97769.69;5031655;28;20221;-31
2022/10/02 07:07:31;;;;;;;1.10;1.10;;;;;;;22.81;55.93;97764.56;5030626;28;20201;-31
2022/10/02 07:10:30;;;;;;;1.00;1.00;;;;;;;22.81;55.89;97772.25;5032175;28;20201;-31
2022/10/02 07:13:24;;;;;;;1.00;1.00;;;;;;;22.80;55.92;97770.50;4983463;28;20327;-31
2022/10/02 07:16:05;;;;;;;1.03;1.03;;;;;;;22.80;56.02;97773.06;5030131;28;20202;-31
2022/10/02 07:19:03;;;;;;;1.03;1.03;;;;;;;22.80;56.00;97771.34;5043508;28;20200;-31
2022/10/02 07:21:45;;;;;;;1.00;1.00;;;;;;;22.80;55.85;97778.19;5030690;28;20209;-31
2022/10/02 07:24:30;;;;;;;1.00;1.00;;;;;;;22.80;55.93;97780.75;5023199;28;20218;-31
2022/10/02 07:27:10;;;;;;;1.00;1.00;;;;;;;22.80;55.99;97775.63;5031649;28;20201;-31
2022/10/02 07:29:40;;;;;;;1.10;1.10;;;;;;;22.81;56.00;97777.38;5030109;28;20567;-31
2022/10/02 07:32:25;;;;;;;1.00;1.00;;;;;;;22.81;55.96;97769.69;5035764;28;20201;-31
2022/10/02 07:34:54;;;;;;;1.00;1.00;;;;;;;22.81;55.91;97774.81;5039874;28;20254;-31
2022/10/02 07:37:40;;;;;;;1.10;1.10;;;;;;;22.79;55.93;97769.63;5031267;28;20577;-31
2022/10/02 07:40:18;;;;;;;2.77;1.10;;;;;;;22.80;55.93;97765.38;5047317;28;20197;-31
2022/10/02 07:43:03;;;;;;;1.30;1.20;;;;;;;22.80;56.02;97770.50;5033425;28;20229;-31
2022/10/02 07:45:35;;;;;;;1.77;1.10;;;;;;;22.81;55.88;97774.81;5031684;28;20204;-31
2022/10/02 07:48:17;;;;;;;1.00;1.00;;;;;;;22.79;55.88;97764.50;5030600;28;20201;-31
2022/10/02 07:51:00;;;;;;;1.00;1.00;;;;;;;22.80;56.12;97762.81;5030312;28;20247;-31
2022/10/02 07:53:38;;;;;;;1.00;1.00;;;;;;;22.80;55.92;97768.78;5032435;28;20214;-31
2022/10/02 07:56:06;;;;;;;1.00;1.00;;;;;;;22.80;56.02;97761.09;5028674;28;20202;-31
2022/10/02 07:58:41;;;;;;;1.33;1.10;;;;;;;22.81;56.12;97764.56;5014035;28;20252;-31
2022/10/02 08:01:11;;;;;;;1.30;1.20;;;;;;;22.77;55.86;97752.50;5022784;28;20197;-31
2022/10/02 08:03:42;;;;;;;1.00;1.00;;;;;;;22.80;56.02;97766.22;5030016;28;20605;-31
2022/10/02 08:06:08;;;;;;;1.00;1.00;;;;;;;22.79;55.79;97758.50;5022731;28;20201;-31
2022/10/02 08:08:42;;;;;;;1.00;1.00;;;;;;;22.79;55.82;97759.38;5030001;28;20201;-31
2022/10/02 08:11:08;;;;;;;0.90;0.90;;;;;;;22.81;56.01;97764.56;5031809;28;20202;-31
2022/10/02 08:13:38;;;;;;;0.97;0.97;;;;;;;22.80;55.97;97765.38;5042841;28;20240;-31
2022/10/02 08:16:05;;;;;;;1.00;1.00;;;;;;;22.81;56.05;97769.69;5032658;28;20204;-31
2022/10/02 08:18:41;;;;;;;1.10;1.10;;;;;;;22.70;55.96;97764.25;5046379;28;20287;-31
2022/10/02 08:21:14;;;;;;;1.10;1.10;;;;;;;22.78;55.97;97769.59;5031342;28;20192;-31
2022/10/02 08:23:55;;;;;;;1.00;1.00;;;;;;;22.71;56.05;97765.97;5036894;28;20230;-31
2022/10/02 08:26:45;;;;;;;1.10;1.10;;;;;;;22.75;56.04;97764.38;5013768;28;20598;-31
2022/10/02 08:29:46;;;;;;;1.10;1.10;;;;;;;22.80;56.29;97771.34;5021109;28;20196;-31
2022/10/02 08:32:12;;;;;;;1.00;1.00;;;;;;;22.80;55.97;97765.38;5037900;28;20202;-31
2022/10/02 08:34:39;;;;;;;1.20;1.10;;;;;;;22.81;55.83;97764.56;5042152;28;20627;-31
2022/10/02 08:37:15;;;;;;;1.10;1.10;;;;;;;22.80;55.99;97770.50;5042450;28;20200;-32
2022/10/02 08:39:52;;;;;;;1.07;1.07;;;;;;;22.80;56.00;97767.94;5034967;28;20671;-31
2022/10/02 08:42:21;;;;;;;0.93;0.93;;;;;;;22.80;55.91;97763.66;5027037;28;20215;-31
2022/10/02 08:45:15;;;;;;;1.10;1.10;;;;;;;22.78;55.95;97762.78;5047181;28;20492;-31
2022/10/02 08:48:23;;;;;;;1.10;1.10;;;;;;;22.81;55.88;97759.44;5034693;28;20201;-31
2022/10/02 08:51:09;;;;;;;1.17;1.07;;;;;;;22.80;55.98;97765.38;5019254;28;20202;-31
2022/10/02 08:54:03;;;;;;;1.00;1.00;;;;;;;22.80;56.01;97770.50;5030684;28;20214;-31
2022/10/02 08:56:33;;;;;;;1.00;1.00;;;;;;;22.80;56.08;97765.38;5042494;28;20664;-32
2022/10/02 08:59:17;;;;;;;1.10;1.00;;;;;;;22.79;55.97;97763.63;5044904;28;20201;-31
2022/10/02 09:01:44;;;;;;;1.07;1.07;;;;;;;22.79;56.04;97761.06;5034612;28;20233;-31
2022/10/02 09:04:39;;;;;;;1.00;1.00;;;;;;;22.80;55.95;97757.69;5034528;28;20213;-31
2022/10/02 09:07:28;;;;;;;1.00;1.00;;;;;;;22.80;56.04;97747.44;5034589;28;20236;-31
2022/10/02 09:09:59;;;;;;;0.83;0.83;;;;;;;22.78;56.02;97742.28;5034680;28;20713;-31
2022/10/02 09:13:21;;;;;;;1.00;1.00;;;;;;;22.79;56.00;97745.69;5032539;28;20207;-31
2022/10/02 09:16:03;;;;;;;1.30;1.20;;;;;;;22.78;56.01;97742.28;4969864;28;20314;-31
2022/10/02 09:18:44;;;;;;;1.00;1.00;;;;;;;22.79;56.06;97738.88;4974285;28;20209;-31
2022/10/02 09:21:18;;;;;;;1.00;1.00;;;;;;;22.75;56.08;97731.06;5014400;28;20197;-31
2022/10/02 09:24:12;;;;;;;1.07;1.07;;;;;;;22.78;56.07;97739.72;5062719;22;20232;-21
2022/10/02 09:26:51;;;;;;;1.40;1.30;;;;;;;22.78;56.02;97732.03;5060002;28;20583;-21
2022/10/02 09:29:39;;;;;;;1.00;1.00;;;;;;;22.78;55.94;97732.03;5063775;28;20200;-21
2022/10/02 09:32:43;;;;;;;1.13;1.13;;;;;;;22.79;55.91;97733.75;5057270;28;20201;-21
2022/10/02 09:35:37;;;;;;;1.00;1.00;;;;;;;22.79;56.09;97728.63;5072319;28;20212;-22
2022/10/02 09:38:28;;;;;;;1.10;1.00;;;;;;;22.79;56.15;97728.63;5070294;28;20753;-21
2022/10/02 09:41:01;;;;;;;1.07;1.07;;;;;;;22.79;56.00;97712.38;5071407;28;20204;-21
2022/10/02 09:43:51;;;;;;;1.27;1.17;;;;;;;22.80;56.01;97714.13;5066785;28;20223;-21
2022/10/02 09:46:35;;;;;;;1.00;1.00;;;;;;;22.80;55.97;97714.13;5052836;28;20193;-21
2022/10/02 09:49:19;;;;;;;0.87;0.87;;;;;;;22.80;56.01;97709.84;5070988;28;21047;-21
2022/10/02 09:52:00;;;;;;;1.10;1.10;;;;;;;22.79;55.88;97715.81;5070705;28;20204;-21
2022/10/02 09:54:45;;;;;;;1.10;1.10;;;;;;;22.79;55.85;97710.69;5079860;28;20709;-21
2022/10/02 09:57:49;;;;;;;1.33;1.23;;;;;;;22.79;56.07;97723.50;5072103;28;20192;-21
2022/10/02 10:00:36;;;;;;;1.10;1.10;;;;;;;22.80;56.06;97698.75;5072080;28;20202;-21
2022/10/02 10:03:41;;;;;;;1.50;1.40;;;;;;;22.77;56.06;97691.84;5071758;28;20212;-21
2022/10/02 10:06:44;;;;;;;1.40;1.30;;;;;;;22.79;56.19;97692.75;5063634;28;20200;-21
2022/10/02 10:09:35;;;;;;;1.00;1.00;;;;;;;22.80;56.06;97691.06;5064188;28;20188;-21
2022/10/02 10:12:15;;;;;;;1.30;1.20;;;;;;;22.51;55.85;97639.06;5066219;28;20201;-21
2022/10/02 10:14:54;;;;;;;1.03;1.03;;;;;;;22.79;56.14;97689.31;5060415;28;20240;-21
2022/10/02 10:17:42;;;;;;;1.00;1.00;;;;;;;22.80;55.96;97693.63;5071043;28;20200;-21
2022/10/02 10:20:35;;;;;;;1.07;1.07;;;;;;;22.80;56.09;97696.19;5066343;28;20197;-21
2022/10/02 10:23:20;;;;;;;1.10;1.10;;;;;;;22.79;56.25;97692.75;5070324;28;20698;-21
2022/10/02 10:25:56;;;;;;;1.00;1.00;;;;;;;22.79;56.06;97677.38;5070604;28;20231;-21
2022/10/02 10:28:42;;;;;;;1.10;1.10;;;;;;;22.80;56.01;97675.69;5073227;28;20196;-21
2022/10/02 10:31:21;;;;;;;1.00;1.00;;;;;;;22.79;55.96;97673.94;5070487;28;20203;-21
2022/10/02 10:34:12;;;;;;;1.10;1.10;;;;;;;22.79;56.17;97663.69;5066675;28;20648;-21
2022/10/02 10:39:58;;;;;;;1.20;1.20;;;;;;;22.77;56.00;97655.13;5069092;28;20203;-21
2022/10/02 10:43:03;;;;;;;1.00;1.00;;;;;;;22.79;56.19;97673.94;5078434;28;20206;-21
2022/10/02 10:46:07;;;;;;;1.10;1.10;;;;;;;22.80;56.09;97673.13;5071004;28;20254;-21
2022/10/02 10:48:44;;;;;;;1.10;1.10;;;;;;;22.80;56.14;97680.81;5071311;28;20204;-21
2022/10/02 10:51:39;;;;;;;1.30;1.20;;;;;;;22.80;56.01;97673.13;5064673;28;20200;-21
2022/10/02 10:54:26;;;;;;;1.33;1.23;;;;;;;22.80;55.89;97678.25;5070925;28;20613;-21
2022/10/02 10:57:11;;;;;;;1.10;1.10;;;;;;;22.80;55.97;97683.38;5069965;28;20200;-21
2022/10/02 11:00:06;;;;;;;1.00;1.00;;;;;;;22.80;56.10;97671.41;5076385;28;20200;-21
2022/10/02 11:02:53;;;;;;;1.20;1.10;;;;;;;22.79;56.18;97650.88;5065643;28;20196;-21
2022/10/02 11:05:32;;;;;;;1.30;1.20;;;;;;;22.80;56.09;97652.63;5071078;28;20644;-21
2022/10/02 11:08:17;;;;;;;1.10;1.10;;;;;;;22.79;55.93;97656.00;5070719;28;20196;-21
2022/10/02 11:11:23;;;;;;;1.10;1.10;;;;;;;22.79;56.09;97654.31;5068097;28;20204;-21
2022/10/02 11:14:11;;;;;;;1.30;1.20;;;;;;;22.78;56.08;97654.28;5069399;28;20302;-21
2022/10/02 11:17:14;;;;;;;1.10;1.10;;;;;;;22.79;56.01;97669.69;5074065;28;20200;-21
2022/10/02 11:19:52;;;;;;;1.10;1.10;;;;;;;22.79;56.10;97674.81;5067938;28;20198;-21
2022/10/02 11:22:38;;;;;;;1.20;1.20;;;;;;;22.79;56.06;97672.25;5069438;28;20203;-21
2022/10/02 11:25:25;;;;;;;1.10;1.10;;;;;;;22.79;56.02;97661.13;5070124;28;20223;-21
2022/10/02 11:28:08;;;;;;;1.10;1.10;;;;;;;22.79;56.11;97664.56;5068930;28;20575;-21
2022/10/02 11:31:16;;;;;;;1.13;1.10;;;;;;;22.78;56.07;97673.09;5071065;28;20287;-21
2022/10/02 11:34:04;;;;;;;1.00;1.00;;;;;;;22.78;56.14;97665.41;5070683;28;20216;-21
2022/10/02 11:36:41;;;;;;;1.50;1.40;;;;;;;22.79;56.10;97666.25;5065841;28;20192;-21
2022/10/02 11:39:32;;;;;;;1.20;1.10;;;;;;;22.79;56.21;97658.56;5067442;28;20203;-22
2022/10/02 11:42:17;;;;;;;1.20;1.20;;;;;;;22.78;56.13;97665.41;5070101;28;20204;-21
2022/10/02 11:45:25;;;;;;;1.00;1.00;;;;;;;22.78;56.06;97670.53;5070639;28;20231;-21
2022/10/02 11:48:07;;;;;;;1.10;1.10;;;;;;;22.79;56.15;97666.25;5070230;28;20337;-21
2022/10/02 11:50:58;;;;;;;1.00;1.00;;;;;;;22.78;56.03;97683.34;5071168;28;20575;-21
2022/10/02 11:53:44;;;;;;;1.20;1.10;;;;;;;22.43;56.24;97624.25;5073307;28;20246;-21
2022/10/02 11:56:21;;;;;;;1.20;1.20;;;;;;;22.78;56.08;97677.34;5064986;28;20192;-21
2022/10/02 11:58:55;;;;;;;1.00;1.00;;;;;;;22.79;55.93;97667.13;5071892;28;20207;-21
2022/10/02 12:01:31;;;;;;;1.20;1.10;;;;;;;22.79;55.90;97687.63;5063725;28;20207;-21
2022/10/02 12:04:17;;;;;;;1.20;1.10;;;;;;;22.79;56.08;97676.50;5072187;28;20223;-24
2022/10/02 12:07:08;;;;;;;1.00;1.00;;;;;;;22.80;56.08;97686.78;5076472;28;20230;-21
2022/10/02 12:09:53;;;;;;;1.00;1.00;;;;;;;22.79;56.08;97662.00;5074657;28;20579;-21
2022/10/02 12:12:40;;;;;;;1.40;1.30;;;;;;;22.80;56.09;97662.88;5072757;28;20200;-21
2022/10/02 12:15:34;;;;;;;1.07;1.07;;;;;;;22.80;55.98;97660.31;5072286;28;20215;-21
2022/10/02 12:18:51;;;;;;;1.13;1.10;;;;;;;22.79;56.16;97656.88;5073094;28;20678;-21
2022/10/02 12:27:21;;;;;;;1.30;1.20;;;;;;;22.79;55.94;97658.56;5069582;28;20196;-21
2022/10/02 12:30:06;;;;;;;1.17;1.07;;;;;;;22.79;56.13;97656.00;5071888;28;20670;-21
2022/10/02 12:32:36;;;;;;;1.33;1.27;;;;;;;22.79;56.14;97658.56;5073714;28;20193;-21
2022/10/02 12:35:21;;;;;;;1.00;1.00;;;;;;;22.79;56.07;97663.69;5072999;28;20964;-21
2022/10/02 12:38:06;;;;;;;1.27;1.17;;;;;;;22.78;56.15;97662.84;5088309;28;20192;-20
2022/10/02 12:40:32;;;;;;;1.37;1.27;;;;;;;22.77;56.19;97671.34;5073289;28;20204;-21
2022/10/02 12:43:37;;;;;;;1.13;1.13;;;;;;;22.78;56.01;97672.22;5073513;28;20200;-21
2022/10/02 12:46:38;;;;;;;1.20;1.10;;;;;;;22.67;56.10;97623.25;5067876;28;20220;-21